首页
METAR-TAF:

METAR-TAF

机场 :

尼诺伊·阿基诺国际机场

马尼拉, 菲律宾

纬度: 14-31N, 经度: 121-00E, 海拔: 14米

当前天气观测

该预报发布于28分钟前的11:00 UTC
风速5节,风向
温度 29°C
湿度 58%
气压 1013 hPa
能见度10公里或以上
少量云层高于2500英尺
多云层高于25000英尺

METAR: RPLL 171100Z 10005KT 9999 FEW025 BKN250 29/20 Q1013 NOSIG RMK A2991

时间: 19:28 (11:28 UTC)

预报

该预报发布于6小时和28分钟前的05:00 UTC
预报有效从17日的 06点(UTC)到 18日的 12点(UTC)
风速6节,风向东转东南
能见度10公里或以上
少量云层高于2500英尺
散云层高于25000英尺
短暂存在
从 17日的 06点(UTC)到 17日的 12点(UTC)
风速10节,风向东转东南
少量云层高于2500英尺
多云层高于25000英尺
短暂存在
从 17日的 12点(UTC)到 17日的 18点(UTC)
风速5节,风向东南

TAF: RPLL 170500Z 1706/1812 12006KT 9999 FEW025 SCT250 TX32/1707Z TN25/1722Z TEMPO 1706/1712 11010KT FEW025 BKN250 TEMPO 1712/1718 13005KT

超过4000个机场的气象观测和天气预报(METAR&TAF报告)。

可查询的气象台以黄色和红色小点在地图上表示。

将鼠标移到小点上方,可查看气象台名称。

然后点击查看天气观测和预报。

如需切换地图:点击带黑十字的绿色按钮放大地图;点击带横线的绿色按钮缩小地图;或者点击绿色箭头查看邻近地区的地图。


METAR-TAF: